createdAt,value
2023-04-01T00:02:22.633Z,88.68
2023-04-01T00:04:55.090Z,92.01
2023-04-01T00:07:27.287Z,93.45
2023-04-01T00:10:03.104Z,90.35
2023-04-01T00:12:35.351Z,92.59
2023-04-01T00:15:08.403Z,94.66
2023-04-01T00:17:43.836Z,98.79
2023-04-01T00:20:17.180Z,99.13
2023-04-01T00:22:49.693Z,95.51
2023-04-01T00:25:22.187Z,92.44
2023-04-01T00:27:54.394Z,95.34
2023-04-01T00:30:26.653Z,96.05
2023-04-01T00:33:01.485Z,98.69
2023-04-01T00:35:34.294Z,93.64
2023-04-01T00:38:07.741Z,87.56
2023-04-01T00:40:42.411Z,90.84
2023-04-01T00:43:19.485Z,98.60
2023-04-01T00:45:53.846Z,97.60
2023-04-01T00:48:34.436Z,105.98
2023-04-01T00:51:11.307Z,107.71
2023-04-01T00:53:48.272Z,113.46
2023-04-01T00:56:26.407Z,112.51
2023-04-01T00:59:06.242Z,111.14
2023-04-01T01:01:40.528Z,101.49
2023-04-01T01:04:27.626Z,101.99
2023-04-01T01:07:10.767Z,98.41
2023-04-01T01:09:54.081Z,96.47
2023-04-01T01:12:36.433Z,100.04
2023-04-01T01:15:22.028Z,101.24
2023-04-01T01:18:06.432Z,100.64
2023-04-01T01:21:18.764Z,100.04
2023-04-01T01:24:29.807Z,107.44
2023-04-01T01:27:10.984Z,103.32
2023-04-01T01:30:16.684Z,100.49
2023-04-01T01:33:11.787Z,108.84
2023-04-01T01:35:54.119Z,99.00
2023-04-01T01:38:29.440Z,98.08
2023-04-01T01:41:04.237Z,90.84
2023-04-01T01:43:43.578Z,79.89
2023-04-01T01:46:20.922Z,68.98
2023-04-01T01:48:56.451Z,59.71
2023-04-01T01:51:33.295Z,58.94
2023-04-01T01:54:05.485Z,57.76
2023-04-01T01:56:40.541Z,50.76
2023-04-01T01:59:16.484Z,47.64
2023-04-01T02:01:54.741Z,45.49
2023-04-01T02:04:28.313Z,48.76
2023-04-01T02:07:07.368Z,48.89
2023-04-01T02:09:40.359Z,44.49
2023-04-01T02:12:18.010Z,41.48
2023-04-01T02:14:57.037Z,42.62
2023-04-01T02:17:32.918Z,41.04
2023-04-01T02:20:11.925Z,38.30
2023-04-01T02:22:52.736Z,35.13
2023-04-01T02:25:32.203Z,36.84
2023-04-01T02:28:07.929Z,35.06
2023-04-01T02:30:44.312Z,35.13
2023-04-01T02:33:17.247Z,33.24
2023-04-01T02:35:49.897Z,37.44
2023-04-01T02:38:24.780Z,37.31
2023-04-01T02:41:03.708Z,40.59
2023-04-01T02:43:35.935Z,43.53
2023-04-01T02:46:08.547Z,38.17
2023-04-01T02:48:40.738Z,42.21
2023-04-01T02:51:13.963Z,44.06
2023-04-01T02:53:48.773Z,46.21
2023-04-01T02:56:21.309Z,46.24
2023-04-01T02:58:53.929Z,41.98
2023-04-01T03:01:27.166Z,39.86
2023-04-01T03:03:59.453Z,38.78
2023-04-01T03:06:31.950Z,37.71
2023-04-01T03:09:07.233Z,37.44
2023-04-01T03:11:39.467Z,34.14
2023-04-01T03:14:11.695Z,32.33
2023-04-01T03:16:43.973Z,32.77
2023-04-01T03:19:16.263Z,30.77
2023-04-01T03:21:48.491Z,30.94
2023-04-01T03:24:23.335Z,31.11
2023-04-01T03:26:55.784Z,31.06
2023-04-01T03:29:28.068Z,28.93
2023-04-01T03:32:00.707Z,31.61
2023-04-01T03:34:32.892Z,32.18
2023-04-01T03:37:05.401Z,35.60
2023-04-01T03:39:40.249Z,39.21
2023-04-01T03:42:12.524Z,43.44
2023-04-01T03:44:44.916Z,43.58
2023-04-01T03:47:17.106Z,45.61
2023-04-01T03:49:49.430Z,46.84
2023-04-01T03:52:21.645Z,46.03
2023-04-01T03:54:56.728Z,48.18
2023-04-01T03:57:29.415Z,50.84
2023-04-01T04:00:01.655Z,53.90
2023-04-01T04:02:33.932Z,55.06
2023-04-01T04:05:06.646Z,54.81
2023-04-01T04:07:39.829Z,57.26
2023-04-01T04:10:15.286Z,58.20
2023-04-01T04:12:47.586Z,58.98
2023-04-01T04:15:20.403Z,65.28
2023-04-01T04:17:52.943Z,60.60
2023-04-01T04:20:25.157Z,61.11
2023-04-01T04:22:57.385Z,62.01
2023-04-01T04:25:32.748Z,63.80
2023-04-01T04:28:05.165Z,58.68
2023-04-01T04:30:37.441Z,56.41
2023-04-01T04:33:10.159Z,53.63
2023-04-01T04:35:42.456Z,53.24
2023-04-01T04:38:14.701Z,53.09
2023-04-01T04:40:50.006Z,51.94
2023-04-01T04:43:24.926Z,51.97
2023-04-01T04:45:57.196Z,54.54
2023-04-01T04:48:29.431Z,55.15
2023-04-01T04:51:01.768Z,53.86
2023-04-01T04:53:34.003Z,54.93
2023-04-01T04:56:09.021Z,52.57
2023-04-01T04:58:41.445Z,50.96
2023-04-01T05:01:14.795Z,46.94
2023-04-01T05:03:48.069Z,44.14
2023-04-01T05:06:23.565Z,40.40
2023-04-01T05:08:55.972Z,38.61
2023-04-01T05:11:31.030Z,38.10
2023-04-01T05:14:03.247Z,38.61
2023-04-01T05:16:35.581Z,38.16
2023-04-01T05:19:07.741Z,43.77
2023-04-01T05:21:39.992Z,46.51
2023-04-01T05:24:13.371Z,49.11
2023-04-01T05:26:48.502Z,51.51
2023-04-01T05:29:20.739Z,52.84
2023-04-01T05:31:53.045Z,48.96
2023-04-01T05:34:25.446Z,49.85
2023-04-01T05:36:57.689Z,52.31
2023-04-01T05:39:30.243Z,47.74
2023-04-01T05:42:05.064Z,46.96
2023-04-01T05:44:37.304Z,45.33
2023-04-01T05:47:09.798Z,40.89
2023-04-01T05:49:42.120Z,38.20
2023-04-01T05:52:14.284Z,39.78
2023-04-01T05:54:46.746Z,35.24
2023-04-01T05:57:22.121Z,33.95
2023-04-01T05:59:54.559Z,32.19
2023-04-01T06:02:27.289Z,31.45
2023-04-01T06:05:15.099Z,29.36
2023-04-01T06:07:47.463Z,29.70
2023-04-01T06:10:22.072Z,30.79
2023-04-01T06:13:09.888Z,30.14
2023-04-01T06:15:53.887Z,30.33
2023-04-01T06:18:54.316Z,31.20
2023-04-01T06:22:08.939Z,33.79
2023-04-01T06:25:04.405Z,33.04
2023-04-01T06:27:55.675Z,35.77
2023-04-01T06:30:49.572Z,33.69
2023-04-01T06:33:51.429Z,31.66
2023-04-01T06:36:53.696Z,34.57
2023-04-01T06:39:53.546Z,32.61
2023-04-01T06:42:55.134Z,32.24
2023-04-01T06:45:41.810Z,30.44
2023-04-01T06:48:40.649Z,30.80
2023-04-01T06:51:24.952Z,29.08
2023-04-01T06:54:07.966Z,30.04
2023-04-01T06:56:47.550Z,25.88
2023-04-01T06:59:24.276Z,25.11
2023-04-01T07:02:00.554Z,24.89
2023-04-01T07:04:40.442Z,26.58
2023-04-01T07:07:26.294Z,25.83
2023-04-01T07:10:02.996Z,21.85
2023-04-01T07:12:45.079Z,23.89
2023-04-01T07:15:25.289Z,23.16
2023-04-01T07:18:03.592Z,24.79
2023-04-01T07:20:42.864Z,27.60
2023-04-01T07:23:25.922Z,30.14
2023-04-01T07:26:03.346Z,33.09
2023-04-01T07:28:37.769Z,35.10
2023-04-01T07:31:24.811Z,35.82
2023-04-01T07:34:08.115Z,35.24
2023-04-01T07:36:49.640Z,35.24
2023-04-01T07:39:37.960Z,34.57
2023-04-01T07:42:20.915Z,33.61
2023-04-01T07:45:06.766Z,34.49
2023-04-01T07:48:05.480Z,34.65
2023-04-01T07:50:47.843Z,34.86
2023-04-01T07:53:36.557Z,36.31
2023-04-01T07:56:15.034Z,37.66
2023-04-01T07:59:02.324Z,37.59
2023-04-01T08:01:44.884Z,38.95
2023-04-01T08:04:43.331Z,40.66
2023-04-01T08:07:22.964Z,40.38
2023-04-01T08:10:07.461Z,41.07
2023-04-01T08:12:52.971Z,40.42
2023-04-01T08:15:31.647Z,41.01
2023-04-01T08:18:16.360Z,43.30
2023-04-01T08:20:55.474Z,42.22
2023-04-01T08:23:32.170Z,44.28
2023-04-01T08:26:15.677Z,44.47
2023-04-01T08:28:56.480Z,47.41
2023-04-01T08:31:36.963Z,47.52
2023-04-01T08:34:19.481Z,44.11
2023-04-01T08:36:57.493Z,43.14
2023-04-01T08:39:37.605Z,43.08
2023-04-01T08:42:51.395Z,44.10
2023-04-01T08:45:45.551Z,43.64
2023-04-01T08:48:50.572Z,46.46
2023-04-01T08:51:59.160Z,45.53
2023-04-01T08:55:07.344Z,47.37
2023-04-01T08:58:02.540Z,45.33
2023-04-01T09:00:41.254Z,45.21
2023-04-01T09:03:39.547Z,47.04
2023-04-01T09:06:30.455Z,44.38
2023-04-01T09:09:31.027Z,44.71
2023-04-01T09:12:28.712Z,45.44
2023-04-01T09:15:42.667Z,42.69
2023-04-01T09:18:54.207Z,37.67
2023-04-01T09:21:52.665Z,35.86
2023-04-01T09:24:56.854Z,36.06
2023-04-01T09:27:34.553Z,32.72
2023-04-01T09:30:37.973Z,33.59
2023-04-01T09:33:42.436Z,35.86
2023-04-01T09:36:37.999Z,41.16
2023-04-01T09:39:39.838Z,42.09
2023-04-01T09:42:30.180Z,41.75
2023-04-01T09:45:05.318Z,44.08
2023-04-01T09:47:59.431Z,45.88
2023-04-01T09:50:47.899Z,49.83
2023-04-01T09:53:41.650Z,49.86
2023-04-01T09:56:47.333Z,53.94
2023-04-01T09:59:55.793Z,53.22
2023-04-01T10:03:03.424Z,59.56
2023-04-01T10:06:08.824Z,61.56
2023-04-01T10:09:28.267Z,68.61
2023-04-01T10:12:38.070Z,67.36
2023-04-01T10:15:39.630Z,65.69
2023-04-01T10:18:44.314Z,65.53
2023-04-01T10:21:51.224Z,66.14
2023-04-01T10:25:08.767Z,64.49
2023-04-01T10:28:05.983Z,63.29
2023-04-01T10:31:08.775Z,63.14
2023-04-01T10:34:10.581Z,59.93
2023-04-01T10:36:59.230Z,59.07
2023-04-01T10:40:04.255Z,59.56
2023-04-01T10:43:14.562Z,67.68
2023-04-01T10:46:34.313Z,63.03
2023-04-01T10:49:57.056Z,60.34
2023-04-01T10:53:07.420Z,56.12
2023-04-01T10:56:10.432Z,54.01
2023-04-01T10:59:15.258Z,51.36
2023-04-01T11:02:28.830Z,48.96
2023-04-01T11:05:31.613Z,53.41
2023-04-01T11:08:39.645Z,44.92
2023-04-01T11:11:49.944Z,46.91
2023-04-01T11:14:57.949Z,41.83
2023-04-01T11:18:09.472Z,28.15
2023-04-01T11:21:12.600Z,22.44
2023-04-01T11:24:18.327Z,21.37
2023-04-01T11:27:08.785Z,22.06
2023-04-01T11:30:15.529Z,25.16
2023-04-01T11:32:57.806Z,26.46
2023-04-01T11:36:09.129Z,26.89
2023-04-01T11:39:12.901Z,24.02
2023-04-01T11:41:57.864Z,25.31
2023-04-01T11:44:32.732Z,19.86
2023-04-01T11:47:41.494Z,17.75
2023-04-01T11:50:31.266Z,15.38
2023-04-01T11:53:34.875Z,15.18
2023-04-01T11:56:26.439Z,17.28
2023-04-01T11:59:32.159Z,15.46
2023-04-01T12:02:16.324Z,17.00
2023-04-01T12:05:09.468Z,18.84
2023-04-01T12:08:09.051Z,23.09
2023-04-01T12:10:53.510Z,29.65
2023-04-01T12:13:41.626Z,32.94
2023-04-01T12:16:34.583Z,37.79
2023-04-01T12:19:20.520Z,41.77
2023-04-01T12:22:13.219Z,44.66
2023-04-01T12:24:51.956Z,46.07
2023-04-01T12:27:44.438Z,48.01
2023-04-01T12:30:52.595Z,51.32
2023-04-01T12:33:52.860Z,56.66
2023-04-01T12:36:45.743Z,61.69
2023-04-01T12:39:41.521Z,67.74
2023-04-01T12:42:35.090Z,69.04
2023-04-01T12:45:33.698Z,71.74
2023-04-01T12:48:31.855Z,74.96
2023-04-01T12:51:34.303Z,79.08
2023-04-01T12:54:50.911Z,82.71
2023-04-01T12:57:38.875Z,84.85
2023-04-01T13:00:36.578Z,84.65
2023-04-01T13:03:37.866Z,81.89
2023-04-01T13:06:45.725Z,83.96
2023-04-01T13:09:36.819Z,81.73
2023-04-01T13:12:41.513Z,76.64
2023-04-01T13:15:31.706Z,77.80
2023-04-01T13:18:19.735Z,73.31
2023-04-01T13:21:07.219Z,63.72
2023-04-01T13:23:55.017Z,52.91
2023-04-01T13:26:39.708Z,53.72
2023-04-01T13:29:20.184Z,58.01
2023-04-01T13:32:10.801Z,54.61
2023-04-01T13:35:00.475Z,54.35
2023-04-01T13:37:54.540Z,52.11
2023-04-01T13:40:52.373Z,53.31
2023-04-01T13:43:41.070Z,50.19
2023-04-01T13:46:40.456Z,47.59
2023-04-01T13:49:42.284Z,37.44
2023-04-01T13:52:36.583Z,36.06
2023-04-01T13:55:32.576Z,39.99
2023-04-01T13:58:29.526Z,38.10
2023-04-01T14:01:15.638Z,38.16
2023-04-01T14:04:26.152Z,36.09
2023-04-01T14:07:13.952Z,39.36
2023-04-01T14:10:04.153Z,40.24
2023-04-01T14:12:47.637Z,40.19
2023-04-01T14:15:45.403Z,46.16
2023-04-01T14:18:43.186Z,45.90
2023-04-01T14:21:38.286Z,48.13
2023-04-01T14:24:42.327Z,50.19
2023-04-01T14:27:55.866Z,46.95
2023-04-01T14:30:48.716Z,48.11
2023-04-01T14:33:46.775Z,46.59
2023-04-01T14:36:39.618Z,43.44
2023-04-01T14:39:42.484Z,42.42
2023-04-01T14:42:44.111Z,44.04
2023-04-01T14:45:45.882Z,43.87
2023-04-01T14:48:30.574Z,43.26
2023-04-01T14:51:15.006Z,39.79
2023-04-01T14:53:58.605Z,43.33
2023-04-01T14:56:46.325Z,43.84
2023-04-01T14:59:32.634Z,40.66
2023-04-01T15:02:17.817Z,43.64
2023-04-01T15:05:01.068Z,45.79
2023-04-01T15:08:05.916Z,46.45
2023-04-01T15:11:03.719Z,45.77
2023-04-01T15:14:09.480Z,47.87
2023-04-01T15:16:56.364Z,44.98
2023-04-01T15:19:43.552Z,45.42
2023-04-01T15:22:42.973Z,43.26
2023-04-01T15:25:41.016Z,44.08
2023-04-01T15:28:27.160Z,44.02
2023-04-01T15:31:09.011Z,42.88
2023-04-01T15:34:00.766Z,40.13
2023-04-01T15:36:45.186Z,38.14
2023-04-01T15:39:24.953Z,41.71
2023-04-01T15:42:20.754Z,38.79
2023-04-01T15:45:16.949Z,39.39
2023-04-01T15:48:00.125Z,38.36
2023-04-01T15:50:57.940Z,37.35
2023-04-01T15:54:08.087Z,37.46
2023-04-01T15:56:58.875Z,33.56
2023-04-01T15:59:59.575Z,30.76
2023-04-01T16:02:43.053Z,31.24
2023-04-01T16:05:39.605Z,33.13
2023-04-01T16:08:34.656Z,33.24
2023-04-01T16:11:25.623Z,35.73
2023-04-01T16:14:14.200Z,35.54
2023-04-01T16:17:06.995Z,38.92
2023-04-01T16:19:57.798Z,40.14
2023-04-01T16:22:37.587Z,44.05
2023-04-01T16:25:36.271Z,41.34
2023-04-01T16:28:27.172Z,39.12
2023-04-01T16:31:04.912Z,38.46
2023-04-01T16:33:52.277Z,39.11
2023-04-01T16:36:33.769Z,50.14
2023-04-01T16:39:42.252Z,53.30
2023-04-01T16:42:36.753Z,53.91
2023-04-01T16:45:31.551Z,51.77
2023-04-01T16:48:17.311Z,49.76
2023-04-01T16:51:00.564Z,49.45
2023-04-01T16:53:46.331Z,53.11
2023-04-01T16:56:26.793Z,51.76
2023-04-01T16:59:08.760Z,54.99
2023-04-01T17:01:52.424Z,50.58
2023-04-01T17:04:35.490Z,44.16
2023-04-01T17:07:29.241Z,45.82
2023-04-01T17:10:26.181Z,46.96
2023-04-01T17:13:20.407Z,46.46
2023-04-01T17:16:04.799Z,45.04
2023-04-01T17:18:50.109Z,46.69
2023-04-01T17:21:30.461Z,46.93
2023-04-01T17:24:29.002Z,45.82
2023-04-01T17:27:20.155Z,45.74
2023-04-01T17:30:22.315Z,48.13
2023-04-01T17:33:11.513Z,45.31
2023-04-01T17:35:57.949Z,44.77
2023-04-01T17:39:02.141Z,43.01
2023-04-01T17:41:51.970Z,42.57
2023-04-01T17:44:39.945Z,43.63
2023-04-01T17:47:31.605Z,43.07
2023-04-01T17:50:27.943Z,43.55
2023-04-01T17:53:19.234Z,42.39
2023-04-01T17:56:10.038Z,44.91
2023-04-01T17:58:51.611Z,46.84
2023-04-01T18:01:48.494Z,48.86
2023-04-01T18:04:41.649Z,50.48
2023-04-01T18:07:38.915Z,52.84
2023-04-01T18:10:27.068Z,50.15
2023-04-01T18:13:32.846Z,51.90
2023-04-01T18:16:23.900Z,50.64
2023-04-01T18:19:07.699Z,52.46
2023-04-01T18:21:49.532Z,53.32
2023-04-01T18:24:29.908Z,57.75
2023-04-01T18:27:28.362Z,62.53
2023-04-01T18:30:07.188Z,56.15
2023-04-01T18:32:52.993Z,59.56
2023-04-01T18:35:34.935Z,62.44
2023-04-01T18:38:17.200Z,62.09
2023-04-01T18:40:59.243Z,62.39
2023-04-01T18:43:58.855Z,60.55
2023-04-01T18:46:44.029Z,61.34
2023-04-01T18:49:34.101Z,60.57
2023-04-01T18:52:20.796Z,63.10
2023-04-01T18:55:14.059Z,61.42
2023-04-01T18:57:54.297Z,60.26
2023-04-01T19:00:30.546Z,59.86
2023-04-01T19:03:11.596Z,56.51
2023-04-01T19:05:50.932Z,58.00
2023-04-01T19:08:31.743Z,58.10
2023-04-01T19:11:14.906Z,58.44
2023-04-01T19:14:01.233Z,58.73
2023-04-01T19:16:48.671Z,53.74
2023-04-01T19:19:53.816Z,55.79
2023-04-01T19:22:44.259Z,54.78
2023-04-01T19:25:40.902Z,55.31
2023-04-01T19:28:36.691Z,58.03
2023-04-01T19:31:25.482Z,57.38
2023-04-01T19:34:14.195Z,57.07
2023-04-01T19:36:54.307Z,58.26
2023-04-01T19:39:50.010Z,63.29
2023-04-01T19:42:36.729Z,61.86
2023-04-01T19:45:30.963Z,63.12
2023-04-01T19:48:16.759Z,62.31
2023-04-01T19:50:58.010Z,63.85
2023-04-01T19:53:42.216Z,65.11
2023-04-01T19:56:23.689Z,62.89
2023-04-01T19:59:03.143Z,70.37
2023-04-01T20:01:45.743Z,76.02
2023-04-01T20:04:25.506Z,72.58
2023-04-01T20:07:05.694Z,77.57
2023-04-01T20:10:04.383Z,78.01
2023-04-01T20:12:52.762Z,81.34
2023-04-01T20:15:37.075Z,85.23
2023-04-01T20:18:23.866Z,87.81
2023-04-01T20:21:04.539Z,87.30
2023-04-01T20:23:47.704Z,88.49
2023-04-01T20:26:28.147Z,90.61
2023-04-01T20:29:23.816Z,93.49
2023-04-01T20:32:10.778Z,97.70
2023-04-01T20:35:00.467Z,92.77
2023-04-01T20:37:44.844Z,95.70
2023-04-01T20:40:38.837Z,95.44
2023-04-01T20:43:47.805Z,97.84
2023-04-01T20:46:29.483Z,95.64
2023-04-01T20:49:33.796Z,96.05
2023-04-01T20:52:22.515Z,96.25
2023-04-01T20:55:21.333Z,90.81
2023-04-01T20:58:14.957Z,92.31
2023-04-01T21:01:02.850Z,90.71
2023-04-01T21:03:53.793Z,89.76
2023-04-01T21:06:50.870Z,88.76
2023-04-01T21:09:45.405Z,87.80
2023-04-01T21:12:35.687Z,86.74
2023-04-01T21:15:36.972Z,82.95
2023-04-01T21:18:51.691Z,83.01
2023-04-01T21:21:57.131Z,81.89
2023-04-01T21:25:07.446Z,82.72
2023-04-01T21:27:57.761Z,81.32
2023-04-01T21:30:52.622Z,82.41
2023-04-01T21:33:58.632Z,80.71
2023-04-01T21:36:57.529Z,79.95
2023-04-01T21:39:56.235Z,82.36
2023-04-01T21:42:41.312Z,83.78
2023-04-01T21:45:50.076Z,85.12
2023-04-01T21:48:49.253Z,85.62
2023-04-01T21:52:15.483Z,87.45
2023-04-01T21:55:34.206Z,86.10
2023-04-01T21:58:51.506Z,86.64
2023-04-01T22:01:52.368Z,88.90
2023-04-01T22:04:48.920Z,90.79
2023-04-01T22:07:28.005Z,92.69
2023-04-01T22:10:14.700Z,89.92
2023-04-01T22:12:57.694Z,92.51
2023-04-01T22:15:38.624Z,93.46
2023-04-01T22:18:23.339Z,91.39
2023-04-01T22:21:06.397Z,90.93
2023-04-01T22:23:51.817Z,91.84
2023-04-01T22:26:33.391Z,88.23
2023-04-01T22:29:14.471Z,89.49
2023-04-01T22:31:54.282Z,89.10
2023-04-01T22:34:39.245Z,90.36
2023-04-01T22:37:20.240Z,89.12
2023-04-01T22:40:14.873Z,91.36
2023-04-01T22:42:50.204Z,90.45
2023-04-01T22:45:49.401Z,91.44
2023-04-01T22:48:34.157Z,95.18
2023-04-01T22:51:17.486Z,99.66
2023-04-01T22:54:07.331Z,101.30
2023-04-01T22:56:47.765Z,103.09
2023-04-01T22:59:28.953Z,104.94
2023-04-01T23:02:08.755Z,103.40
2023-04-01T23:04:47.155Z,106.25
2023-04-01T23:07:48.078Z,106.56
2023-04-01T23:10:30.119Z,109.36
2023-04-01T23:13:09.759Z,106.91
2023-04-01T23:15:43.585Z,111.63
2023-04-01T23:18:26.870Z,112.38
2023-04-01T23:21:11.754Z,111.17
2023-04-01T23:24:07.493Z,112.94
2023-04-01T23:26:51.344Z,113.83
2023-04-01T23:29:29.087Z,110.54
2023-04-01T23:32:05.720Z,112.06
2023-04-01T23:34:41.269Z,109.74
2023-04-01T23:37:18.867Z,112.99
2023-04-01T23:39:53.996Z,117.08
2023-04-01T23:42:30.860Z,120.69
2023-04-01T23:45:09.384Z,121.09
2023-04-01T23:47:45.205Z,120.92
2023-04-01T23:50:22.890Z,125.95
2023-04-01T23:53:13.297Z,126.08
2023-04-01T23:55:47.396Z,122.21
2023-04-01T23:58:27.438Z,125.55
